Time;durP1;ratioP1;P1;durP2;ratioP2;P2;SDS_P1;SDS_P2;PMS_P1;PMS_P2;Temp;Humidity;BMP_temperature;BMP_pressure;BME280_temperature;BME280_humidity;BME280_pressure;Samples;Min_cycle;Max_cycle;Signal;HPM_P1;HPM_P2
2023/07/15 00:00:38;;;;;;;;;;;24.60;52.40;;;;;;5067760;28;19913;-53
2023/07/15 00:03:03;;;;;;;;;;;24.60;52.20;;;;;;5068008;28;20038;-52
2023/07/15 00:05:35;;;;;;;;;;;24.50;52.10;;;;;;5061847;28;20003;-52
2023/07/15 00:08:01;;;;;;;;;;;24.60;52.10;;;;;;5053255;28;19952;-52
2023/07/15 00:10:27;;;;;;;;;;;24.50;52.00;;;;;;5052330;28;19993;-52
2023/07/15 00:12:52;;;;;;;;;;;24.50;52.10;;;;;;5050587;28;19921;-52
2023/07/15 00:15:18;;;;;;;;;;;24.50;52.10;;;;;;5053171;28;19955;-53
2023/07/15 00:17:43;;;;;;;;;;;24.50;52.10;;;;;;5053023;28;20365;-53
2023/07/15 00:20:14;;;;;;;;;;;24.50;52.00;;;;;;5055506;28;20347;-52
2023/07/15 00:22:41;;;;;;;;;;;24.50;52.00;;;;;;5052875;28;20361;-53
2023/07/15 00:25:09;;;;;;;;;;;24.50;52.00;;;;;;5055545;28;19916;-52
2023/07/15 00:27:35;;;;;;;;;;;24.50;51.90;;;;;;5051357;28;19927;-53
2023/07/15 00:30:00;;;;;;;;;;;24.50;51.90;;;;;;5055389;28;19912;-53
2023/07/15 00:32:26;;;;;;;;;;;24.50;51.90;;;;;;5049009;28;19970;-53
2023/07/15 00:34:51;;;;;;;;;;;24.50;51.90;;;;;;5052283;28;19913;-52
2023/07/15 00:37:17;;;;;;;;;;;24.50;51.80;;;;;;5069093;28;19919;-52
2023/07/15 00:39:43;;;;;;;;;;;24.50;51.90;;;;;;5061661;28;20321;-52
2023/07/15 00:42:13;;;;;;;;;;;24.50;51.80;;;;;;5054622;28;19946;-52
2023/07/15 00:44:39;;;;;;;;;;;24.50;51.90;;;;;;5068525;28;19918;-52
2023/07/15 00:47:21;;;;;;;;;;;24.50;51.80;;;;;;5058137;28;20269;-53
2023/07/15 00:49:47;;;;;;;;;;;24.50;51.80;;;;;;5063553;28;19916;-52
2023/07/15 00:52:13;;;;;;;;;;;24.50;51.60;;;;;;5041326;28;19962;-52
2023/07/15 00:54:40;;;;;;;;;;;24.50;51.60;;;;;;5064179;28;19920;-53
2023/07/15 00:57:06;;;;;;;;;;;24.50;51.50;;;;;;5053631;28;19912;-53
2023/07/15 00:59:31;;;;;;;;;;;24.50;51.40;;;;;;5054189;28;19974;-53
2023/07/15 01:01:57;;;;;;;;;;;24.50;51.40;;;;;;5057859;28;19913;-53
2023/07/15 01:04:22;;;;;;;;;;;24.50;51.20;;;;;;5059415;28;19921;-52
2023/07/15 01:06:48;;;;;;;;;;;24.50;51.10;;;;;;5067293;28;19951;-53
2023/07/15 01:09:13;;;;;;;;;;;24.40;50.90;;;;;;5052197;28;19920;-52
2023/07/15 01:11:39;;;;;;;;;;;24.50;51.00;;;;;;5066728;28;20662;-52
2023/07/15 01:14:05;;;;;;;;;;;24.50;51.20;;;;;;5051176;28;19940;-52
2023/07/15 01:16:32;;;;;;;;;;;24.50;50.80;;;;;;5058531;28;19940;-52
2023/07/15 01:18:57;;;;;;;;;;;24.50;50.90;;;;;;5054659;28;19923;-53
2023/07/15 01:21:24;;;;;;;;;;;24.50;50.80;;;;;;5051789;28;19916;-52
2023/07/15 01:23:49;;;;;;;;;;;24.40;50.60;;;;;;5056160;28;19923;-52
2023/07/15 01:26:14;;;;;;;;;;;24.40;50.60;;;;;;5052552;28;20385;-52
2023/07/15 01:28:40;;;;;;;;;;;24.30;50.30;;;;;;5052578;28;20441;-52
2023/07/15 01:31:05;;;;;;;;;;;24.40;50.30;;;;;;5056920;28;19916;-52
2023/07/15 01:33:31;;;;;;;;;;;24.40;50.50;;;;;;5053548;28;19923;-52
2023/07/15 01:35:56;;;;;;;;;;;24.40;50.60;;;;;;5060640;28;20292;-53
2023/07/15 01:38:22;;;;;;;;;;;24.40;50.20;;;;;;5055033;28;20289;-52
2023/07/15 01:40:47;;;;;;;;;;;24.40;50.30;;;;;;5057663;28;20025;-53
2023/07/15 01:43:13;;;;;;;;;;;24.40;50.10;;;;;;5063230;28;19966;-52
2023/07/15 01:45:39;;;;;;;;;;;24.30;50.00;;;;;;5063568;28;19920;-53
2023/07/15 01:48:05;;;;;;;;;;;24.30;50.10;;;;;;5055557;28;19939;-52
2023/07/15 01:50:30;;;;;;;;;;;24.30;50.10;;;;;;5052404;28;20396;-52
2023/07/15 01:52:56;;;;;;;;;;;24.30;50.00;;;;;;5049792;28;19917;-52
2023/07/15 01:55:21;;;;;;;;;;;24.20;49.90;;;;;;5054350;28;20377;-52
2023/07/15 01:57:47;;;;;;;;;;;24.20;49.70;;;;;;5056375;28;20347;-52
2023/07/15 02:00:16;;;;;;;;;;;24.20;49.90;;;;;;5053918;28;19917;-52
2023/07/15 02:02:41;;;;;;;;;;;24.10;49.70;;;;;;5055161;28;19948;-52
2023/07/15 02:05:07;;;;;;;;;;;24.20;49.70;;;;;;5051087;28;19959;-52
2023/07/15 02:07:33;;;;;;;;;;;24.20;49.60;;;;;;5050426;28;20296;-52
2023/07/15 02:09:58;;;;;;;;;;;24.20;49.90;;;;;;5053026;28;19912;-52
2023/07/15 02:12:24;;;;;;;;;;;24.20;49.40;;;;;;5050666;28;19927;-52
2023/07/15 02:14:49;;;;;;;;;;;24.20;49.30;;;;;;5048880;28;19921;-52
2023/07/15 02:17:17;;;;;;;;;;;24.20;49.50;;;;;;5051652;28;20231;-52
2023/07/15 02:19:43;;;;;;;;;;;24.20;49.40;;;;;;5051700;28;20325;-52
2023/07/15 02:22:09;;;;;;;;;;;24.20;49.50;;;;;;5065196;28;19913;-52
2023/07/15 02:24:34;;;;;;;;;;;24.20;49.40;;;;;;5059751;28;20395;-52
2023/07/15 02:27:00;;;;;;;;;;;24.20;49.40;;;;;;5051428;28;21067;-52
2023/07/15 02:29:25;;;;;;;;;;;24.20;49.60;;;;;;5052571;28;19960;-52
2023/07/15 02:31:50;;;;;;;;;;;24.20;49.30;;;;;;5047393;28;20297;-52
2023/07/15 02:34:16;;;;;;;;;;;24.20;49.30;;;;;;5049349;28;20340;-52
2023/07/15 02:36:41;;;;;;;;;;;24.20;49.30;;;;;;5054874;28;19916;-54
2023/07/15 02:39:08;;;;;;;;;;;24.10;49.30;;;;;;5053594;28;20003;-52
2023/07/15 02:41:33;;;;;;;;;;;24.10;49.20;;;;;;5062906;28;20396;-52
2023/07/15 02:43:59;;;;;;;;;;;24.20;49.30;;;;;;5052735;28;19964;-52
2023/07/15 02:46:25;;;;;;;;;;;24.20;49.30;;;;;;5057079;28;19932;-51
2023/07/15 02:48:50;;;;;;;;;;;24.10;49.20;;;;;;5054697;28;19920;-52
2023/07/15 02:51:16;;;;;;;;;;;24.10;49.40;;;;;;5054892;28;19928;-52
2023/07/15 02:53:44;;;;;;;;;;;24.10;49.10;;;;;;5054401;28;19912;-52
2023/07/15 02:56:10;;;;;;;;;;;24.10;49.30;;;;;;5055235;28;20007;-52
2023/07/15 02:58:35;;;;;;;;;;;24.10;49.30;;;;;;5053652;28;20638;-52
2023/07/15 03:01:01;;;;;;;;;;;24.10;49.30;;;;;;5052365;28;20391;-52
2023/07/15 03:03:26;;;;;;;;;;;24.10;49.30;;;;;;5053576;28;20296;-52
2023/07/15 03:05:54;;;;;;;;;;;24.10;49.30;;;;;;5053097;28;19921;-52
2023/07/15 03:08:19;;;;;;;;;;;24.00;49.10;;;;;;5051944;28;19923;-52
2023/07/15 03:10:45;;;;;;;;;;;24.00;49.10;;;;;;5053917;28;19912;-52
2023/07/15 03:13:11;;;;;;;;;;;24.00;49.20;;;;;;5056047;28;19913;-52
2023/07/15 03:15:36;;;;;;;;;;;24.00;49.10;;;;;;5053256;28;20365;-52
2023/07/15 03:18:02;;;;;;;;;;;24.00;49.10;;;;;;5055910;28;19916;-52
2023/07/15 03:20:28;;;;;;;;;;;24.00;49.20;;;;;;5058493;28;19961;-52
2023/07/15 03:22:54;;;;;;;;;;;24.00;49.20;;;;;;5049412;28;19923;-52
2023/07/15 03:25:19;;;;;;;;;;;24.00;49.10;;;;;;5053378;28;20009;-53
2023/07/15 03:27:45;;;;;;;;;;;23.90;49.10;;;;;;5053027;28;19952;-54
2023/07/15 03:30:11;;;;;;;;;;;23.90;49.10;;;;;;5058645;28;20284;-54
2023/07/15 03:32:37;;;;;;;;;;;23.90;49.00;;;;;;5055761;28;19917;-51
2023/07/15 03:35:03;;;;;;;;;;;23.90;48.90;;;;;;5053378;28;19928;-52
2023/07/15 03:37:32;;;;;;;;;;;23.90;49.00;;;;;;5052240;28;19921;-52
2023/07/15 03:39:57;;;;;;;;;;;23.90;49.00;;;;;;5050608;28;19924;-52
2023/07/15 03:42:23;;;;;;;;;;;23.90;48.90;;;;;;5052524;28;19921;-51
2023/07/15 03:44:49;;;;;;;;;;;23.90;48.90;;;;;;5054874;28;19913;-51
2023/07/15 03:47:14;;;;;;;;;;;23.90;48.90;;;;;;5052288;28;19975;-51
2023/07/15 03:49:40;;;;;;;;;;;23.90;48.90;;;;;;5057073;28;19913;-54
2023/07/15 03:52:06;;;;;;;;;;;23.90;49.60;;;;;;5050950;28;19920;-51
2023/07/15 03:54:31;;;;;;;;;;;23.90;49.00;;;;;;5057026;28;19913;-53
2023/07/15 03:56:57;;;;;;;;;;;24.00;49.00;;;;;;5070615;28;19916;-52
2023/07/15 03:59:22;;;;;;;;;;;23.90;48.90;;;;;;5054946;28;19966;-52
2023/07/15 04:01:48;;;;;;;;;;;23.90;49.00;;;;;;5055250;28;20345;-54
2023/07/15 04:04:13;;;;;;;;;;;23.90;48.80;;;;;;5050748;28;19913;-52
2023/07/15 04:06:39;;;;;;;;;;;23.90;49.00;;;;;;5059189;28;19924;-52
2023/07/15 04:09:11;;;;;;;;;;;23.90;48.90;;;;;;5053519;28;20373;-52
2023/07/15 04:11:36;;;;;;;;;;;23.90;49.00;;;;;;5059753;28;19944;-52
2023/07/15 04:14:01;;;;;;;;;;;23.80;48.90;;;;;;5055485;28;19952;-52
2023/07/15 04:16:27;;;;;;;;;;;23.80;48.90;;;;;;5053075;28;19920;-52
2023/07/15 04:18:53;;;;;;;;;;;23.80;48.90;;;;;;5051622;28;19925;-52
2023/07/15 04:21:18;;;;;;;;;;;23.80;48.90;;;;;;5051677;28;20007;-54
2023/07/15 04:23:44;;;;;;;;;;;23.80;48.90;;;;;;5050746;28;19921;-52
2023/07/15 04:26:10;;;;;;;;;;;23.80;49.00;;;;;;5050603;28;19917;-52
2023/07/15 04:28:35;;;;;;;;;;;23.80;49.10;;;;;;5055463;28;19924;-52
2023/07/15 04:31:01;;;;;;;;;;;23.80;49.00;;;;;;5054176;28;19921;-52
2023/07/15 04:33:26;;;;;;;;;;;23.80;49.00;;;;;;5052448;28;19921;-52
2023/07/15 04:35:52;;;;;;;;;;;23.70;49.00;;;;;;5053012;28;19920;-52
2023/07/15 04:38:18;;;;;;;;;;;23.80;49.00;;;;;;5050449;28;19966;-52
2023/07/15 04:40:43;;;;;;;;;;;23.80;49.00;;;;;;5053004;28;20297;-52
2023/07/15 04:43:09;;;;;;;;;;;23.80;49.00;;;;;;5053488;28;19917;-51
2023/07/15 04:45:34;;;;;;;;;;;23.80;49.00;;;;;;5051457;28;20023;-54
2023/07/15 04:48:00;;;;;;;;;;;23.80;49.00;;;;;;5053115;28;19920;-51
2023/07/15 04:50:25;;;;;;;;;;;23.80;49.10;;;;;;5053003;28;20000;-52
2023/07/15 04:52:51;;;;;;;;;;;23.80;49.10;;;;;;5052280;28;19982;-51
2023/07/15 04:55:16;;;;;;;;;;;23.70;49.20;;;;;;5048400;28;20316;-54
2023/07/15 04:57:41;;;;;;;;;;;23.70;49.30;;;;;;5052150;28;19920;-51
2023/07/15 05:00:11;;;;;;;;;;;23.80;49.30;;;;;;5055538;28;19920;-52
2023/07/15 05:02:37;;;;;;;;;;;23.80;49.30;;;;;;5055484;28;19912;-51
2023/07/15 05:05:04;;;;;;;;;;;23.70;49.30;;;;;;5053957;28;19920;-51
2023/07/15 05:07:29;;;;;;;;;;;23.70;49.30;;;;;;5047941;28;20045;-54
2023/07/15 05:09:55;;;;;;;;;;;23.80;49.40;;;;;;5049648;28;19917;-51
2023/07/15 05:12:20;;;;;;;;;;;23.80;49.30;;;;;;5054763;28;20285;-54
2023/07/15 05:14:46;;;;;;;;;;;23.80;49.40;;;;;;5053543;28;19912;-51
2023/07/15 05:17:11;;;;;;;;;;;23.80;49.40;;;;;;5056048;28;19921;-54
2023/07/15 05:19:36;;;;;;;;;;;23.70;49.40;;;;;;5052136;28;19925;-53
2023/07/15 05:22:02;;;;;;;;;;;23.70;49.50;;;;;;5052664;28;19966;-54
2023/07/15 05:24:28;;;;;;;;;;;23.70;49.60;;;;;;5052770;28;19919;-53
2023/07/15 05:26:56;;;;;;;;;;;23.60;49.70;;;;;;5051992;28;19923;-54
2023/07/15 05:29:22;;;;;;;;;;;23.60;49.70;;;;;;5053075;28;19916;-53
2023/07/15 05:31:48;;;;;;;;;;;23.50;49.70;;;;;;5053657;28;19960;-53
2023/07/15 05:34:13;;;;;;;;;;;23.60;49.80;;;;;;5052272;28;20040;-53
2023/07/15 05:36:39;;;;;;;;;;;23.60;49.70;;;;;;5050373;28;20007;-53
2023/07/15 05:39:04;;;;;;;;;;;23.70;49.90;;;;;;5053711;28;19964;-53
2023/07/15 05:41:30;;;;;;;;;;;23.60;49.70;;;;;;5050307;28;19913;-54
2023/07/15 05:43:55;;;;;;;;;;;23.60;49.80;;;;;;5050747;28;19920;-53
2023/07/15 05:46:21;;;;;;;;;;;23.60;49.90;;;;;;5051307;28;19924;-53
2023/07/15 05:48:46;;;;;;;;;;;23.70;49.90;;;;;;5052413;28;19917;-53
2023/07/15 05:51:12;;;;;;;;;;;23.70;49.80;;;;;;5049339;28;19996;-52
2023/07/15 05:53:38;;;;;;;;;;;23.70;49.90;;;;;;5052759;28;19913;-53
2023/07/15 05:56:03;;;;;;;;;;;23.70;49.90;;;;;;5051375;28;20448;-53
2023/07/15 05:58:29;;;;;;;;;;;23.70;50.00;;;;;;5046157;28;19912;-53
2023/07/15 06:00:54;;;;;;;;;;;23.70;50.10;;;;;;5048418;28;19920;-54
2023/07/15 06:03:20;;;;;;;;;;;23.70;50.20;;;;;;5053307;28;19923;-53
2023/07/15 06:05:45;;;;;;;;;;;23.70;50.20;;;;;;5050946;28;20352;-53
2023/07/15 06:08:11;;;;;;;;;;;23.70;50.20;;;;;;5051695;28;19962;-53
2023/07/15 06:10:36;;;;;;;;;;;23.70;50.20;;;;;;5050143;28;20011;-53
2023/07/15 06:13:02;;;;;;;;;;;23.70;50.30;;;;;;5049110;28;19916;-53
2023/07/15 06:15:27;;;;;;;;;;;23.70;50.30;;;;;;5050366;28;19923;-53
2023/07/15 06:17:55;;;;;;;;;;;23.70;50.50;;;;;;5049699;28;19921;-54
2023/07/15 06:20:21;;;;;;;;;;;23.80;50.40;;;;;;5057862;28;19963;-54
2023/07/15 06:22:47;;;;;;;;;;;23.70;50.40;;;;;;5052018;28;19925;-53
2023/07/15 06:25:13;;;;;;;;;;;23.70;50.50;;;;;;5051260;28;19913;-54
2023/07/15 06:27:39;;;;;;;;;;;23.70;50.60;;;;;;5053984;28;19920;-54
2023/07/15 06:30:06;;;;;;;;;;;23.70;50.70;;;;;;5050370;28;19962;-53
2023/07/15 06:32:32;;;;;;;;;;;23.60;50.80;;;;;;5055090;28;19960;-53
2023/07/15 06:34:57;;;;;;;;;;;23.70;50.80;;;;;;5052742;28;19972;-53
2023/07/15 06:37:23;;;;;;;;;;;23.70;50.80;;;;;;5049045;28;19913;-54
2023/07/15 06:39:48;;;;;;;;;;;23.70;50.80;;;;;;5050458;28;19977;-52
2023/07/15 06:42:14;;;;;;;;;;;23.70;50.80;;;;;;5051384;28;20373;-54
2023/07/15 06:44:39;;;;;;;;;;;23.80;50.80;;;;;;5051426;28;19962;-53
2023/07/15 06:47:04;;;;;;;;;;;23.80;50.80;;;;;;5050806;28;19928;-54
2023/07/15 06:49:30;;;;;;;;;;;23.80;50.90;;;;;;5051984;28;19923;-51
2023/07/15 06:51:55;;;;;;;;;;;23.80;50.90;;;;;;5047232;28;19964;-54
2023/07/15 06:54:21;;;;;;;;;;;23.80;51.00;;;;;;5049821;28;19920;-54
2023/07/15 06:56:47;;;;;;;;;;;23.90;51.10;;;;;;5051037;28;19966;-54
2023/07/15 06:59:12;;;;;;;;;;;23.90;51.20;;;;;;5046461;28;19963;-54
2023/07/15 07:01:38;;;;;;;;;;;24.00;51.30;;;;;;5051361;28;19920;-53
2023/07/15 07:04:04;;;;;;;;;;;23.90;51.30;;;;;;5046727;28;20312;-54
2023/07/15 07:06:30;;;;;;;;;;;23.90;51.50;;;;;;5047959;28;19916;-54
2023/07/15 07:08:55;;;;;;;;;;;23.90;51.70;;;;;;5049699;28;19921;-54
2023/07/15 07:11:21;;;;;;;;;;;23.90;51.80;;;;;;5050298;28;19913;-54
2023/07/15 07:13:46;;;;;;;;;;;24.00;51.90;;;;;;5049832;28;19965;-53
2023/07/15 07:16:11;;;;;;;;;;;24.00;52.00;;;;;;5049011;28;19920;-55
2023/07/15 07:18:37;;;;;;;;;;;24.00;52.30;;;;;;5046956;28;19917;-53
2023/07/15 07:21:02;;;;;;;;;;;24.00;52.30;;;;;;5049191;28;19938;-53
2023/07/15 07:23:29;;;;;;;;;;;24.00;52.50;;;;;;5055389;28;19916;-54
2023/07/15 07:25:55;;;;;;;;;;;24.10;52.80;;;;;;5051932;28;20123;-54
2023/07/15 07:28:21;;;;;;;;;;;24.10;52.70;;;;;;5054065;28;19913;-54
2023/07/15 07:30:46;;;;;;;;;;;24.10;52.90;;;;;;5053215;28;19918;-54
2023/07/15 07:33:12;;;;;;;;;;;24.10;52.90;;;;;;5053141;28;19913;-53
2023/07/15 07:35:37;;;;;;;;;;;24.10;53.20;;;;;;5061067;28;19956;-53
2023/07/15 07:38:03;;;;;;;;;;;24.10;53.10;;;;;;5057014;28;19920;-53
2023/07/15 07:40:28;;;;;;;;;;;24.10;53.20;;;;;;5062523;28;19917;-54
2023/07/15 07:42:54;;;;;;;;;;;24.20;53.40;;;;;;5064032;28;20246;-53
2023/07/15 07:45:20;;;;;;;;;;;24.20;53.40;;;;;;5055503;28;19990;-53
2023/07/15 07:47:46;;;;;;;;;;;24.30;53.30;;;;;;5067541;28;19932;-54
2023/07/15 07:50:11;;;;;;;;;;;24.30;53.30;;;;;;5064228;28;19908;-54
2023/07/15 07:52:36;;;;;;;;;;;24.30;53.20;;;;;;5068317;28;19978;-54
2023/07/15 07:55:03;;;;;;;;;;;24.40;53.30;;;;;;5059448;28;19917;-53
2023/07/15 07:57:29;;;;;;;;;;;24.50;53.00;;;;;;5062140;28;20376;-52
2023/07/15 07:59:54;;;;;;;;;;;24.50;53.00;;;;;;5058525;28;19927;-52
2023/07/15 08:02:20;;;;;;;;;;;24.50;53.00;;;;;;5058087;28;19912;-51
2023/07/15 08:04:48;;;;;;;;;;;24.50;52.70;;;;;;5063994;28;19999;-52
2023/07/15 08:07:14;;;;;;;;;;;24.60;53.30;;;;;;5057915;28;19963;-52
2023/07/15 08:09:39;;;;;;;;;;;24.70;52.50;;;;;;5061767;28;20015;-52
2023/07/15 08:12:08;;;;;;;;;;;24.70;52.30;;;;;;5056320;28;19919;-53
2023/07/15 08:14:33;;;;;;;;;;;24.80;52.40;;;;;;5060996;28;19920;-52
2023/07/15 08:16:59;;;;;;;;;;;24.90;52.40;;;;;;5064389;28;20110;-53
2023/07/15 08:19:24;;;;;;;;;;;24.90;52.40;;;;;;5057355;28;20376;-52
2023/07/15 08:21:50;;;;;;;;;;;24.90;52.30;;;;;;5059966;28;19977;-52
2023/07/15 08:24:15;;;;;;;;;;;25.00;52.50;;;;;;5061416;28;19912;-53
2023/07/15 08:26:40;;;;;;;;;;;25.00;52.40;;;;;;5056652;28;19999;-52
2023/07/15 08:29:06;;;;;;;;;;;25.00;52.30;;;;;;5055501;28;19983;-52
2023/07/15 08:31:31;;;;;;;;;;;25.10;52.00;;;;;;5055517;28;19913;-53
2023/07/15 08:33:57;;;;;;;;;;;25.20;52.00;;;;;;5060366;28;19916;-55
2023/07/15 08:36:23;;;;;;;;;;;25.10;52.00;;;;;;5058142;28;19959;-52
2023/07/15 08:38:48;;;;;;;;;;;25.10;51.70;;;;;;5061268;28;19924;-53
2023/07/15 08:41:14;;;;;;;;;;;25.30;51.50;;;;;;5054920;28;20296;-53
2023/07/15 08:43:43;;;;;;;;;;;25.40;51.50;;;;;;5057065;28;19917;-53
2023/07/15 08:46:15;;;;;;;;;;;25.50;51.70;;;;;;5064993;28;19925;-53
2023/07/15 08:48:40;;;;;;;;;;;25.40;51.60;;;;;;5056102;28;19912;-53
2023/07/15 08:51:06;;;;;;;;;;;25.40;51.90;;;;;;5064205;28;19939;-53
2023/07/15 08:53:31;;;;;;;;;;;25.60;51.90;;;;;;5061034;28;19913;-53
2023/07/15 08:55:57;;;;;;;;;;;25.50;51.40;;;;;;5048720;28;19971;-53
2023/07/15 08:58:22;;;;;;;;;;;25.60;51.40;;;;;;5056036;28;19944;-53
2023/07/15 09:00:48;;;;;;;;;;;25.80;51.00;;;;;;5054505;28;19925;-53
2023/07/15 09:03:14;;;;;;;;;;;25.80;50.90;;;;;;5058374;28;19988;-53
2023/07/15 09:05:39;;;;;;;;;;;25.70;50.40;;;;;;5055104;28;19917;-54
2023/07/15 09:08:08;;;;;;;;;;;25.80;50.90;;;;;;5056249;28;19913;-53
2023/07/15 09:10:34;;;;;;;;;;;25.80;50.70;;;;;;5052858;28;19959;-54
2023/07/15 09:12:59;;;;;;;;;;;26.00;50.50;;;;;;5056307;28;19948;-53
2023/07/15 09:15:25;;;;;;;;;;;26.20;50.40;;;;;;5059074;28;19916;-54
2023/07/15 09:17:51;;;;;;;;;;;26.10;50.60;;;;;;5050675;28;19913;-55
2023/07/15 09:20:18;;;;;;;;;;;26.00;50.90;;;;;;5051030;28;19968;-53
2023/07/15 09:22:45;;;;;;;;;;;26.10;51.00;;;;;;5054374;28;19965;-53
2023/07/15 09:25:11;;;;;;;;;;;26.10;50.60;;;;;;5053600;28;20356;-54
2023/07/15 09:27:40;;;;;;;;;;;26.20;50.60;;;;;;5055662;28;19975;-53
2023/07/15 09:30:06;;;;;;;;;;;26.30;50.40;;;;;;5052248;28;19962;-54
2023/07/15 09:32:32;;;;;;;;;;;26.40;50.50;;;;;;5057319;28;20387;-53
2023/07/15 09:34:57;;;;;;;;;;;26.40;50.30;;;;;;5052116;28;19916;-53
2023/07/15 09:37:27;;;;;;;;;;;26.60;49.60;;;;;;5054196;28;19913;-54
2023/07/15 09:39:56;;;;;;;;;;;26.50;49.90;;;;;;5058233;28;19916;-54
2023/07/15 09:42:22;;;;;;;;;;;26.60;49.20;;;;;;5053652;28;19916;-54
2023/07/15 09:44:48;;;;;;;;;;;26.50;49.30;;;;;;5055768;28;20019;-54
2023/07/15 09:47:13;;;;;;;;;;;26.50;49.50;;;;;;5048664;28;20008;-52
2023/07/15 09:49:39;;;;;;;;;;;26.50;49.50;;;;;;5056238;28;19931;-53
2023/07/15 09:52:05;;;;;;;;;;;26.40;49.40;;;;;;5056598;28;19922;-53
2023/07/15 09:54:31;;;;;;;;;;;26.50;49.50;;;;;;5054143;28;19923;-53
2023/07/15 09:57:00;;;;;;;;;;;26.60;49.10;;;;;;5055510;28;20278;-53
2023/07/15 09:59:26;;;;;;;;;;;26.60;48.80;;;;;;5056446;28;20368;-53
2023/07/15 10:01:56;;;;;;;;;;;26.60;49.00;;;;;;5056980;28;19912;-53
2023/07/15 10:04:24;;;;;;;;;;;26.80;48.90;;;;;;5054461;28;20025;-53
2023/07/15 10:06:50;;;;;;;;;;;26.80;48.20;;;;;;5051466;28;19982;-53
2023/07/15 10:09:15;;;;;;;;;;;26.90;48.00;;;;;;5053789;28;20098;-53
2023/07/15 10:11:41;;;;;;;;;;;26.90;48.00;;;;;;5050800;28;20321;-53
2023/07/15 10:14:07;;;;;;;;;;;26.90;48.10;;;;;;5051151;28;19924;-52
2023/07/15 10:16:34;;;;;;;;;;;26.80;48.60;;;;;;5051424;28;19920;-53
2023/07/15 10:19:01;;;;;;;;;;;26.90;48.70;;;;;;5047261;28;19921;-53
2023/07/15 10:21:27;;;;;;;;;;;27.00;48.60;;;;;;5052495;28;20312;-52
2023/07/15 10:24:05;;;;;;;;;;;27.00;49.10;;;;;;5051013;28;19928;-52
2023/07/15 10:26:30;;;;;;;;;;;27.00;48.90;;;;;;5048805;28;19917;-53
2023/07/15 10:28:58;;;;;;;;;;;27.10;49.00;;;;;;5053712;28;19912;-53
2023/07/15 10:31:23;;;;;;;;;;;27.20;49.00;;;;;;5050476;28;19913;-52
2023/07/15 10:33:55;;;;;;;;;;;27.20;49.20;;;;;;5052770;28;19966;-53
2023/07/15 10:36:53;;;;;;;;;;;27.30;49.00;;;;;;5063796;28;19917;-53
2023/07/15 10:39:19;;;;;;;;;;;27.50;48.30;;;;;;5026931;28;20297;-53
2023/07/15 10:41:48;;;;;;;;;;;27.30;48.00;;;;;;5052851;28;19924;-53
2023/07/15 10:44:17;;;;;;;;;;;27.30;47.80;;;;;;5049241;28;19917;-53
2023/07/15 10:47:05;;;;;;;;;;;27.60;47.30;;;;;;5053293;28;19921;-53
2023/07/15 10:49:31;;;;;;;;;;;27.60;47.40;;;;;;5048812;28;19920;-52
2023/07/15 10:51:57;;;;;;;;;;;27.70;46.80;;;;;;5051241;28;19912;-52
2023/07/15 10:54:23;;;;;;;;;;;27.80;46.40;;;;;;5052198;28;20039;-52
2023/07/15 10:56:49;;;;;;;;;;;27.70;46.50;;;;;;5053830;28;20010;-52
2023/07/15 10:59:15;;;;;;;;;;;27.60;46.70;;;;;;5053776;28;20060;-53
2023/07/15 11:01:41;;;;;;;;;;;27.60;46.90;;;;;;5050313;28;19936;-53
2023/07/15 11:04:06;;;;;;;;;;;27.40;47.10;;;;;;5056442;28;19913;-53
2023/07/15 11:06:33;;;;;;;;;;;27.50;47.10;;;;;;5058190;28;20282;-52
2023/07/15 11:08:58;;;;;;;;;;;27.50;46.70;;;;;;5065283;28;19923;-53
2023/07/15 11:11:24;;;;;;;;;;;27.50;46.70;;;;;;5067862;28;19908;-52
2023/07/15 11:13:49;;;;;;;;;;;27.40;46.60;;;;;;5054934;28;19916;-52
2023/07/15 11:16:15;;;;;;;;;;;27.40;46.70;;;;;;5055911;28;19923;-52
2023/07/15 11:18:40;;;;;;;;;;;27.40;46.60;;;;;;5052742;28;19917;-52
2023/07/15 11:21:06;;;;;;;;;;;27.40;46.70;;;;;;5053179;28;19920;-52
2023/07/15 11:23:31;;;;;;;;;;;27.40;46.80;;;;;;5055413;28;19913;-52
2023/07/15 11:25:57;;;;;;;;;;;27.50;46.60;;;;;;5053907;28;19928;-52
2023/07/15 11:28:22;;;;;;;;;;;27.40;46.60;;;;;;5056050;28;19920;-53
2023/07/15 11:30:48;;;;;;;;;;;27.40;46.80;;;;;;5053862;28;19928;-52
2023/07/15 11:33:14;;;;;;;;;;;27.40;46.80;;;;;;5051871;28;19917;-52
2023/07/15 11:35:40;;;;;;;;;;;27.40;47.10;;;;;;5054151;28;20430;-52
2023/07/15 11:38:15;;;;;;;;;;;27.50;46.80;;;;;;5051008;28;19913;-52
2023/07/15 11:40:51;;;;;;;;;;;27.50;46.70;;;;;;5055703;28;19963;-52
2023/07/15 11:43:17;;;;;;;;;;;27.50;46.50;;;;;;5052639;28;19912;-52
2023/07/15 11:45:42;;;;;;;;;;;27.50;46.40;;;;;;5052926;28;19921;-52
2023/07/15 11:48:07;;;;;;;;;;;27.40;46.60;;;;;;5054593;28;19934;-52
2023/07/15 11:50:34;;;;;;;;;;;27.40;46.50;;;;;;5055668;28;20013;-52
2023/07/15 11:53:00;;;;;;;;;;;27.30;46.50;;;;;;5049877;28;19916;-52
2023/07/15 11:55:25;;;;;;;;;;;27.30;46.70;;;;;;5056881;28;20395;-53
2023/07/15 11:57:51;;;;;;;;;;;27.30;46.80;;;;;;5054868;28;20397;-52
2023/07/15 12:00:23;;;;;;;;;;;27.20;47.00;;;;;;5049115;28;20085;-52
2023/07/15 12:02:49;;;;;;;;;;;27.20;47.20;;;;;;5052569;28;19913;-52
2023/07/15 12:05:14;;;;;;;;;;;27.20;47.30;;;;;;5051237;28;19921;-52
2023/07/15 12:07:45;;;;;;;;;;;27.20;47.60;;;;;;5055227;28;19920;-52
2023/07/15 12:10:11;;;;;;;;;;;27.20;47.70;;;;;;5054057;28;20459;-53
2023/07/15 12:12:37;;;;;;;;;;;27.10;47.70;;;;;;5051815;28;20015;-52
2023/07/15 12:15:03;;;;;;;;;;;27.20;47.90;;;;;;5051560;28;20535;-52
2023/07/15 12:17:29;;;;;;;;;;;27.20;47.90;;;;;;5053949;28;19913;-52
2023/07/15 12:19:54;;;;;;;;;;;27.20;47.90;;;;;;5051554;28;19932;-52
2023/07/15 12:22:19;;;;;;;;;;;27.20;47.90;;;;;;5049857;28;19927;-52
2023/07/15 12:24:45;;;;;;;;;;;27.20;48.10;;;;;;5052816;28;20281;-52
2023/07/15 12:27:10;;;;;;;;;;;27.20;48.10;;;;;;5051392;28;20254;-52
2023/07/15 12:29:36;;;;;;;;;;;27.30;48.30;;;;;;5052957;28;20289;-52
2023/07/15 12:32:01;;;;;;;;;;;27.30;48.30;;;;;;5053046;28;20311;-52
2023/07/15 12:34:27;;;;;;;;;;;27.20;48.40;;;;;;5052127;28;19927;-52
2023/07/15 12:36:52;;;;;;;;;;;27.20;48.80;;;;;;5055343;28;19919;-51
2023/07/15 12:39:17;;;;;;;;;;;27.20;49.10;;;;;;5053556;28;20347;-51
2023/07/15 12:41:43;;;;;;;;;;;27.10;49.00;;;;;;5052198;28;19955;-51
2023/07/15 12:44:12;;;;;;;;;;;27.20;49.10;;;;;;5053603;28;19920;-52
2023/07/15 12:46:37;;;;;;;;;;;27.20;49.00;;;;;;5050123;28;19923;-51
2023/07/15 12:49:03;;;;;;;;;;;27.20;48.90;;;;;;5053664;28;20287;-51
2023/07/15 12:51:28;;;;;;;;;;;27.20;48.70;;;;;;5053154;28;19917;-51
2023/07/15 12:53:53;;;;;;;;;;;27.20;48.90;;;;;;5052586;28;19963;-51
2023/07/15 12:56:21;;;;;;;;;;;27.10;49.00;;;;;;5053503;28;19921;-51
2023/07/15 12:58:47;;;;;;;;;;;27.10;49.10;;;;;;5051042;28;19956;-52
2023/07/15 13:01:12;;;;;;;;;;;27.10;49.20;;;;;;5056495;28;20365;-52
2023/07/15 13:03:38;;;;;;;;;;;27.10;49.30;;;;;;5052653;28;19917;-52
2023/07/15 13:06:03;;;;;;;;;;;27.10;49.50;;;;;;5051030;28;19919;-52
2023/07/15 13:08:29;;;;;;;;;;;27.10;49.70;;;;;;5049053;28;20340;-52
2023/07/15 13:10:54;;;;;;;;;;;27.10;49.80;;;;;;5050136;28;19917;-52
2023/07/15 13:13:19;;;;;;;;;;;27.10;50.00;;;;;;5051675;28;19917;-52
2023/07/15 13:15:45;;;;;;;;;;;27.20;50.10;;;;;;5053567;28;19913;-52
2023/07/15 13:18:11;;;;;;;;;;;27.10;50.20;;;;;;5050858;28;19913;-52
2023/07/15 13:20:37;;;;;;;;;;;27.00;50.40;;;;;;5051536;28;20296;-52
2023/07/15 13:23:02;;;;;;;;;;;27.00;50.80;;;;;;5051962;28;19939;-52
2023/07/15 13:25:27;;;;;;;;;;;26.90;51.00;;;;;;5054958;28;20055;-52
2023/07/15 13:27:53;;;;;;;;;;;26.90;51.20;;;;;;5050246;28;20387;-52
2023/07/15 13:30:18;;;;;;;;;;;26.90;52.00;;;;;;5056351;28;20381;-53
2023/07/15 13:32:44;;;;;;;;;;;26.90;51.90;;;;;;5050719;28;19920;-52
2023/07/15 13:35:09;;;;;;;;;;;27.00;51.90;;;;;;5050566;28;19979;-52
2023/07/15 13:37:35;;;;;;;;;;;27.00;52.10;;;;;;5054783;28;19940;-52
2023/07/15 13:40:00;;;;;;;;;;;27.00;52.20;;;;;;5053008;28;19920;-52
2023/07/15 13:42:26;;;;;;;;;;;26.90;52.10;;;;;;5053615;28;19919;-51
2023/07/15 13:44:51;;;;;;;;;;;26.90;52.60;;;;;;5052413;28;19995;-52
2023/07/15 13:47:17;;;;;;;;;;;26.90;52.80;;;;;;5050773;28;20011;-53
2023/07/15 13:49:42;;;;;;;;;;;26.90;52.80;;;;;;5057541;28;19912;-52
2023/07/15 13:52:08;;;;;;;;;;;26.80;53.00;;;;;;5049650;28;19916;-52
2023/07/15 13:54:33;;;;;;;;;;;26.80;53.30;;;;;;5049511;28;19913;-52
2023/07/15 13:56:59;;;;;;;;;;;26.80;53.30;;;;;;5049001;28;20670;-52
2023/07/15 13:59:27;;;;;;;;;;;26.70;53.50;;;;;;5051005;28;20289;-52
2023/07/15 14:01:53;;;;;;;;;;;26.70;53.70;;;;;;5050367;28;19912;-52
2023/07/15 14:04:18;;;;;;;;;;;26.70;53.90;;;;;;5049967;28;19916;-52
2023/07/15 14:06:46;;;;;;;;;;;26.70;54.00;;;;;;5048658;28;19970;-52
2023/07/15 14:09:12;;;;;;;;;;;26.70;54.30;;;;;;5050707;28;19973;-53